sensor_id;sensor_type;location;lat;lon;timestamp;P1;durP1;ratioP1;P2;durP2;ratioP2
40284;SDS011;25997;50.214;19.354;2023-03-13T00:02:37;5.90;;;4.65;;
40284;SDS011;25997;50.214;19.354;2023-03-13T00:05:40;5.93;;;5.00;;
40284;SDS011;25997;50.214;19.354;2023-03-13T00:08:43;6.65;;;4.45;;
40284;SDS011;25997;50.214;19.354;2023-03-13T00:11:45;8.32;;;6.05;;
40284;SDS011;25997;50.214;19.354;2023-03-13T00:14:48;7.97;;;5.88;;
40284;SDS011;25997;50.214;19.354;2023-03-13T00:17:51;6.93;;;5.47;;
40284;SDS011;25997;50.214;19.354;2023-03-13T00:20:58;7.78;;;6.13;;
40284;SDS011;25997;50.214;19.354;2023-03-13T00:24:01;7.32;;;5.18;;
40284;SDS011;25997;50.214;19.354;2023-03-13T00:27:04;6.30;;;5.30;;
40284;SDS011;25997;50.214;19.354;2023-03-13T00:30:07;7.05;;;5.60;;
40284;SDS011;25997;50.214;19.354;2023-03-13T00:33:10;6.10;;;5.18;;
40284;SDS011;25997;50.214;19.354;2023-03-13T00:36:14;6.43;;;4.97;;
40284;SDS011;25997;50.214;19.354;2023-03-13T00:39:19;11.55;;;5.13;;
40284;SDS011;25997;50.214;19.354;2023-03-13T00:42:22;6.80;;;4.93;;
40284;SDS011;25997;50.214;19.354;2023-03-13T00:45:24;7.10;;;6.10;;
40284;SDS011;25997;50.214;19.354;2023-03-13T00:48:27;5.97;;;4.78;;
40284;SDS011;25997;50.214;19.354;2023-03-13T00:51:31;8.25;;;5.03;;
40284;SDS011;25997;50.214;19.354;2023-03-13T00:54:33;6.10;;;5.10;;
40284;SDS011;25997;50.214;19.354;2023-03-13T00:57:36;6.68;;;5.68;;
40284;SDS011;25997;50.214;19.354;2023-03-13T01:00:38;5.90;;;4.95;;
40284;SDS011;25997;50.214;19.354;2023-03-13T01:03:41;6.07;;;4.72;;
40284;SDS011;25997;50.214;19.354;2023-03-13T01:06:46;5.82;;;4.68;;
40284;SDS011;25997;50.214;19.354;2023-03-13T01:09:49;7.22;;;4.60;;
40284;SDS011;25997;50.214;19.354;2023-03-13T01:12:52;6.40;;;4.20;;
40284;SDS011;25997;50.214;19.354;2023-03-13T01:15:54;5.07;;;4.00;;
40284;SDS011;25997;50.214;19.354;2023-03-13T01:18:58;7.25;;;4.88;;
40284;SDS011;25997;50.214;19.354;2023-03-13T01:22:04;7.40;;;5.65;;
40284;SDS011;25997;50.214;19.354;2023-03-13T01:25:07;11.68;;;6.20;;
40284;SDS011;25997;50.214;19.354;2023-03-13T01:28:09;7.68;;;6.03;;
40284;SDS011;25997;50.214;19.354;2023-03-13T01:31:12;6.25;;;4.53;;
40284;SDS011;25997;50.214;19.354;2023-03-13T01:34:17;5.53;;;4.93;;
40284;SDS011;25997;50.214;19.354;2023-03-13T01:37:21;6.22;;;4.97;;
40284;SDS011;25997;50.214;19.354;2023-03-13T01:40:23;6.10;;;4.95;;
40284;SDS011;25997;50.214;19.354;2023-03-13T01:43:26;4.55;;;3.78;;
40284;SDS011;25997;50.214;19.354;2023-03-13T01:46:33;6.43;;;5.00;;
40284;SDS011;25997;50.214;19.354;2023-03-13T01:49:35;6.78;;;5.35;;
40284;SDS011;25997;50.214;19.354;2023-03-13T01:52:50;7.90;;;4.93;;
40284;SDS011;25997;50.214;19.354;2023-03-13T01:55:57;7.93;;;5.50;;
40284;SDS011;25997;50.214;19.354;2023-03-13T01:59:02;5.88;;;5.28;;
40284;SDS011;25997;50.214;19.354;2023-03-13T02:02:08;5.20;;;4.70;;
40284;SDS011;25997;50.214;19.354;2023-03-13T02:05:11;5.93;;;5.20;;
40284;SDS011;25997;50.214;19.354;2023-03-13T02:08:18;5.22;;;4.25;;
40284;SDS011;25997;50.214;19.354;2023-03-13T02:11:28;4.80;;;4.10;;
40284;SDS011;25997;50.214;19.354;2023-03-13T02:14:38;6.10;;;4.90;;
40284;SDS011;25997;50.214;19.354;2023-03-13T02:17:46;4.85;;;4.28;;
40284;SDS011;25997;50.214;19.354;2023-03-13T02:20:50;7.68;;;6.40;;
40284;SDS011;25997;50.214;19.354;2023-03-13T02:24:07;6.03;;;4.32;;
40284;SDS011;25997;50.214;19.354;2023-03-13T02:27:16;6.82;;;4.40;;
40284;SDS011;25997;50.214;19.354;2023-03-13T02:30:20;7.50;;;5.15;;
40284;SDS011;25997;50.214;19.354;2023-03-13T02:33:25;5.35;;;4.65;;
40284;SDS011;25997;50.214;19.354;2023-03-13T02:36:30;7.20;;;5.68;;
40284;SDS011;25997;50.214;19.354;2023-03-13T02:39:32;9.13;;;7.47;;
40284;SDS011;25997;50.214;19.354;2023-03-13T02:42:38;5.88;;;5.28;;
40284;SDS011;25997;50.214;19.354;2023-03-13T02:45:58;6.45;;;5.13;;
40284;SDS011;25997;50.214;19.354;2023-03-13T02:49:09;5.50;;;4.82;;
40284;SDS011;25997;50.214;19.354;2023-03-13T02:52:22;6.90;;;4.82;;
40284;SDS011;25997;50.214;19.354;2023-03-13T02:55:28;5.65;;;4.43;;
40284;SDS011;25997;50.214;19.354;2023-03-13T02:58:38;5.50;;;3.97;;
40284;SDS011;25997;50.214;19.354;2023-03-13T03:01:41;7.15;;;4.85;;
40284;SDS011;25997;50.214;19.354;2023-03-13T03:04:44;7.70;;;5.65;;
40284;SDS011;25997;50.214;19.354;2023-03-13T03:07:47;6.38;;;4.85;;
40284;SDS011;25997;50.214;19.354;2023-03-13T03:10:50;7.07;;;5.63;;
40284;SDS011;25997;50.214;19.354;2023-03-13T03:13:57;6.55;;;5.88;;
40284;SDS011;25997;50.214;19.354;2023-03-13T03:17:01;5.95;;;4.68;;
40284;SDS011;25997;50.214;19.354;2023-03-13T03:20:04;4.78;;;4.28;;
40284;SDS011;25997;50.214;19.354;2023-03-13T03:23:15;5.68;;;4.72;;
40284;SDS011;25997;50.214;19.354;2023-03-13T03:26:17;6.07;;;5.47;;
40284;SDS011;25997;50.214;19.354;2023-03-13T03:29:21;5.30;;;4.80;;
40284;SDS011;25997;50.214;19.354;2023-03-13T03:32:26;6.68;;;4.68;;
40284;SDS011;25997;50.214;19.354;2023-03-13T03:35:29;4.70;;;3.80;;
40284;SDS011;25997;50.214;19.354;2023-03-13T03:38:31;6.55;;;4.78;;
40284;SDS011;25997;50.214;19.354;2023-03-13T03:41:34;5.75;;;5.15;;
40284;SDS011;25997;50.214;19.354;2023-03-13T03:44:39;6.63;;;5.55;;
40284;SDS011;25997;50.214;19.354;2023-03-13T03:47:43;6.68;;;5.28;;
40284;SDS011;25997;50.214;19.354;2023-03-13T03:50:46;6.95;;;4.55;;
40284;SDS011;25997;50.214;19.354;2023-03-13T03:53:50;8.20;;;6.25;;
40284;SDS011;25997;50.214;19.354;2023-03-13T03:56:52;7.72;;;4.82;;
40284;SDS011;25997;50.214;19.354;2023-03-13T03:59:56;7.57;;;5.70;;
40284;SDS011;25997;50.214;19.354;2023-03-13T04:02:59;7.53;;;5.90;;
40284;SDS011;25997;50.214;19.354;2023-03-13T04:06:02;6.20;;;5.30;;
40284;SDS011;25997;50.214;19.354;2023-03-13T04:09:07;5.78;;;4.32;;
40284;SDS011;25997;50.214;19.354;2023-03-13T04:12:11;4.93;;;4.18;;
40284;SDS011;25997;50.214;19.354;2023-03-13T04:15:19;5.80;;;4.75;;
40284;SDS011;25997;50.214;19.354;2023-03-13T04:18:22;5.28;;;4.68;;
40284;SDS011;25997;50.214;19.354;2023-03-13T04:21:25;6.03;;;4.95;;
40284;SDS011;25997;50.214;19.354;2023-03-13T04:24:35;5.13;;;4.15;;
40284;SDS011;25997;50.214;19.354;2023-03-13T04:27:38;5.97;;;4.70;;
40284;SDS011;25997;50.214;19.354;2023-03-13T04:30:43;7.80;;;4.20;;
40284;SDS011;25997;50.214;19.354;2023-03-13T04:34:06;6.10;;;4.55;;
40284;SDS011;25997;50.214;19.354;2023-03-13T04:37:27;6.03;;;4.47;;
40284;SDS011;25997;50.214;19.354;2023-03-13T04:40:55;6.43;;;4.85;;
40284;SDS011;25997;50.214;19.354;2023-03-13T04:44:11;6.28;;;5.30;;
40284;SDS011;25997;50.214;19.354;2023-03-13T04:47:36;7.22;;;5.18;;
40284;SDS011;25997;50.214;19.354;2023-03-13T04:50:58;5.07;;;4.38;;
40284;SDS011;25997;50.214;19.354;2023-03-13T04:54:10;11.80;;;8.57;;
40284;SDS011;25997;50.214;19.354;2023-03-13T04:57:27;6.20;;;5.40;;
40284;SDS011;25997;50.214;19.354;2023-03-13T05:00:39;12.75;;;10.30;;
40284;SDS011;25997;50.214;19.354;2023-03-13T05:04:04;40.97;;;28.35;;
40284;SDS011;25997;50.214;19.354;2023-03-13T05:07:25;9.38;;;8.00;;
40284;SDS011;25997;50.214;19.354;2023-03-13T05:10:59;7.57;;;6.35;;
40284;SDS011;25997;50.214;19.354;2023-03-13T05:14:21;9.60;;;6.80;;
40284;SDS011;25997;50.214;19.354;2023-03-13T05:17:40;38.55;;;32.67;;
40284;SDS011;25997;50.214;19.354;2023-03-13T05:21:14;25.00;;;20.73;;
40284;SDS011;25997;50.214;19.354;2023-03-13T05:24:33;25.58;;;23.05;;
40284;SDS011;25997;50.214;19.354;2023-03-13T05:27:55;19.95;;;17.40;;
40284;SDS011;25997;50.214;19.354;2023-03-13T05:31:03;14.40;;;12.90;;
40284;SDS011;25997;50.214;19.354;2023-03-13T05:34:26;9.25;;;7.93;;
40284;SDS011;25997;50.214;19.354;2023-03-13T05:37:48;6.88;;;5.70;;
40284;SDS011;25997;50.214;19.354;2023-03-13T05:41:11;9.18;;;6.85;;
40284;SDS011;25997;50.214;19.354;2023-03-13T05:44:28;9.55;;;7.63;;
40284;SDS011;25997;50.214;19.354;2023-03-13T05:47:34;9.40;;;6.88;;
40284;SDS011;25997;50.214;19.354;2023-03-13T05:50:56;14.77;;;11.40;;
40284;SDS011;25997;50.214;19.354;2023-03-13T05:54:21;8.10;;;6.10;;
40284;SDS011;25997;50.214;19.354;2023-03-13T05:57:44;10.73;;;8.10;;
40284;SDS011;25997;50.214;19.354;2023-03-13T06:01:04;68.90;;;35.25;;
40284;SDS011;25997;50.214;19.354;2023-03-13T06:04:28;132.48;;;72.35;;
40284;SDS011;25997;50.214;19.354;2023-03-13T06:07:31;258.20;;;137.65;;
40284;SDS011;25997;50.214;19.354;2023-03-13T06:10:35;271.33;;;147.98;;
40284;SDS011;25997;50.214;19.354;2023-03-13T06:13:37;290.23;;;184.95;;
40284;SDS011;25997;50.214;19.354;2023-03-13T06:16:55;224.15;;;137.70;;
40284;SDS011;25997;50.214;19.354;2023-03-13T06:20:00;110.70;;;61.47;;
40284;SDS011;25997;50.214;19.354;2023-03-13T06:23:02;140.80;;;75.25;;
40284;SDS011;25997;50.214;19.354;2023-03-13T06:26:06;152.65;;;73.65;;
40284;SDS011;25997;50.214;19.354;2023-03-13T06:29:09;98.43;;;50.25;;
40284;SDS011;25997;50.214;19.354;2023-03-13T06:32:12;75.82;;;33.13;;
40284;SDS011;25997;50.214;19.354;2023-03-13T06:35:15;51.90;;;22.33;;
40284;SDS011;25997;50.214;19.354;2023-03-13T06:38:17;55.30;;;23.08;;
40284;SDS011;25997;50.214;19.354;2023-03-13T06:41:21;40.85;;;18.38;;
40284;SDS011;25997;50.214;19.354;2023-03-13T06:44:24;20.05;;;11.80;;
40284;SDS011;25997;50.214;19.354;2023-03-13T06:47:26;50.38;;;22.98;;
40284;SDS011;25997;50.214;19.354;2023-03-13T06:50:31;18.95;;;10.98;;
40284;SDS011;25997;50.214;19.354;2023-03-13T06:53:33;45.30;;;20.75;;
40284;SDS011;25997;50.214;19.354;2023-03-13T06:56:37;31.88;;;16.13;;
40284;SDS011;25997;50.214;19.354;2023-03-13T06:59:40;31.52;;;16.35;;
40284;SDS011;25997;50.214;19.354;2023-03-13T07:02:42;31.88;;;17.17;;
40284;SDS011;25997;50.214;19.354;2023-03-13T07:05:45;13.30;;;8.75;;
40284;SDS011;25997;50.214;19.354;2023-03-13T07:08:47;21.02;;;12.40;;
40284;SDS011;25997;50.214;19.354;2023-03-13T07:11:51;17.35;;;10.25;;
40284;SDS011;25997;50.214;19.354;2023-03-13T07:14:54;13.70;;;9.35;;
40284;SDS011;25997;50.214;19.354;2023-03-13T07:17:57;14.07;;;10.05;;
40284;SDS011;25997;50.214;19.354;2023-03-13T07:21:00;15.52;;;9.73;;
40284;SDS011;25997;50.214;19.354;2023-03-13T07:24:06;12.95;;;9.68;;
40284;SDS011;25997;50.214;19.354;2023-03-13T07:27:10;15.43;;;9.77;;
40284;SDS011;25997;50.214;19.354;2023-03-13T07:30:13;13.45;;;8.40;;
40284;SDS011;25997;50.214;19.354;2023-03-13T07:33:16;12.30;;;10.18;;
40284;SDS011;25997;50.214;19.354;2023-03-13T07:36:19;26.98;;;16.52;;
40284;SDS011;25997;50.214;19.354;2023-03-13T07:39:21;16.80;;;9.43;;
40284;SDS011;25997;50.214;19.354;2023-03-13T07:42:25;78.00;;;38.45;;
40284;SDS011;25997;50.214;19.354;2023-03-13T07:45:28;10.93;;;8.18;;
40284;SDS011;25997;50.214;19.354;2023-03-13T07:48:31;12.25;;;8.25;;
40284;SDS011;25997;50.214;19.354;2023-03-13T07:51:35;9.63;;;7.60;;
40284;SDS011;25997;50.214;19.354;2023-03-13T07:54:37;14.85;;;7.55;;
40284;SDS011;25997;50.214;19.354;2023-03-13T07:57:41;11.85;;;7.45;;
40284;SDS011;25997;50.214;19.354;2023-03-13T08:00:44;12.65;;;6.55;;
40284;SDS011;25997;50.214;19.354;2023-03-13T08:03:46;13.55;;;8.35;;
40284;SDS011;25997;50.214;19.354;2023-03-13T08:06:50;11.10;;;7.55;;
40284;SDS011;25997;50.214;19.354;2023-03-13T08:09:54;9.45;;;6.07;;
40284;SDS011;25997;50.214;19.354;2023-03-13T08:13:00;10.23;;;6.35;;
40284;SDS011;25997;50.214;19.354;2023-03-13T08:16:04;13.32;;;6.95;;
40284;SDS011;25997;50.214;19.354;2023-03-13T08:19:08;8.38;;;5.50;;
40284;SDS011;25997;50.214;19.354;2023-03-13T08:22:11;9.65;;;6.22;;
40284;SDS011;25997;50.214;19.354;2023-03-13T08:25:14;9.13;;;5.05;;
40284;SDS011;25997;50.214;19.354;2023-03-13T08:28:18;12.57;;;5.65;;
40284;SDS011;25997;50.214;19.354;2023-03-13T08:31:21;9.00;;;6.18;;
40284;SDS011;25997;50.214;19.354;2023-03-13T08:34:25;7.80;;;5.93;;
40284;SDS011;25997;50.214;19.354;2023-03-13T08:37:27;9.05;;;5.43;;
40284;SDS011;25997;50.214;19.354;2023-03-13T08:40:30;10.40;;;5.97;;
40284;SDS011;25997;50.214;19.354;2023-03-13T08:43:34;9.57;;;6.60;;
40284;SDS011;25997;50.214;19.354;2023-03-13T08:46:36;12.52;;;7.30;;
40284;SDS011;25997;50.214;19.354;2023-03-13T08:49:39;9.27;;;5.45;;
40284;SDS011;25997;50.214;19.354;2023-03-13T08:52:42;8.95;;;5.15;;
40284;SDS011;25997;50.214;19.354;2023-03-13T08:55:51;10.23;;;6.28;;
40284;SDS011;25997;50.214;19.354;2023-03-13T08:58:55;13.27;;;6.40;;
40284;SDS011;25997;50.214;19.354;2023-03-13T09:01:59;15.65;;;6.78;;
40284;SDS011;25997;50.214;19.354;2023-03-13T09:05:02;13.30;;;5.68;;
40284;SDS011;25997;50.214;19.354;2023-03-13T09:08:05;9.57;;;5.70;;
40284;SDS011;25997;50.214;19.354;2023-03-13T09:11:09;13.80;;;7.95;;
40284;SDS011;25997;50.214;19.354;2023-03-13T09:14:15;14.27;;;9.43;;
40284;SDS011;25997;50.214;19.354;2023-03-13T09:17:17;12.38;;;6.43;;
40284;SDS011;25997;50.214;19.354;2023-03-13T09:20:20;8.70;;;5.38;;
40284;SDS011;25997;50.214;19.354;2023-03-13T09:23:23;8.38;;;5.22;;
40284;SDS011;25997;50.214;19.354;2023-03-13T09:26:26;7.70;;;5.25;;
40284;SDS011;25997;50.214;19.354;2023-03-13T09:29:31;11.52;;;6.65;;
40284;SDS011;25997;50.214;19.354;2023-03-13T09:32:37;13.63;;;8.60;;
40284;SDS011;25997;50.214;19.354;2023-03-13T09:35:40;23.23;;;11.70;;
40284;SDS011;25997;50.214;19.354;2023-03-13T09:38:43;14.18;;;8.00;;
40284;SDS011;25997;50.214;19.354;2023-03-13T09:41:47;12.88;;;6.60;;
40284;SDS011;25997;50.214;19.354;2023-03-13T09:44:58;13.52;;;6.80;;
40284;SDS011;25997;50.214;19.354;2023-03-13T09:48:07;12.55;;;8.23;;
40284;SDS011;25997;50.214;19.354;2023-03-13T09:51:20;9.00;;;5.97;;
40284;SDS011;25997;50.214;19.354;2023-03-13T09:54:27;9.48;;;4.93;;
40284;SDS011;25997;50.214;19.354;2023-03-13T09:57:39;11.50;;;6.32;;
40284;SDS011;25997;50.214;19.354;2023-03-13T10:03:57;7.43;;;5.43;;
40284;SDS011;25997;50.214;19.354;2023-03-13T10:07:07;8.70;;;6.35;;
40284;SDS011;25997;50.214;19.354;2023-03-13T10:10:12;7.85;;;5.22;;
40284;SDS011;25997;50.214;19.354;2023-03-13T10:13:19;10.65;;;5.68;;
40284;SDS011;25997;50.214;19.354;2023-03-13T10:16:26;7.22;;;4.72;;
40284;SDS011;25997;50.214;19.354;2023-03-13T10:19:34;11.25;;;5.85;;
40284;SDS011;25997;50.214;19.354;2023-03-13T10:22:38;11.15;;;5.40;;
40284;SDS011;25997;50.214;19.354;2023-03-13T10:25:44;11.18;;;5.20;;
40284;SDS011;25997;50.214;19.354;2023-03-13T10:28:47;9.80;;;5.25;;
40284;SDS011;25997;50.214;19.354;2023-03-13T10:31:55;9.80;;;4.82;;
40284;SDS011;25997;50.214;19.354;2023-03-13T10:34:59;8.38;;;5.72;;
40284;SDS011;25997;50.214;19.354;2023-03-13T10:38:04;11.68;;;6.22;;
40284;SDS011;25997;50.214;19.354;2023-03-13T10:41:17;8.30;;;4.85;;
40284;SDS011;25997;50.214;19.354;2023-03-13T10:44:29;8.45;;;5.55;;
40284;SDS011;25997;50.214;19.354;2023-03-13T10:47:35;10.23;;;5.07;;
40284;SDS011;25997;50.214;19.354;2023-03-13T10:50:40;8.18;;;4.75;;
40284;SDS011;25997;50.214;19.354;2023-03-13T10:53:44;7.60;;;4.13;;
40284;SDS011;25997;50.214;19.354;2023-03-13T10:56:47;7.90;;;4.25;;
40284;SDS011;25997;50.214;19.354;2023-03-13T10:59:50;9.18;;;4.90;;
40284;SDS011;25997;50.214;19.354;2023-03-13T11:02:55;9.43;;;4.82;;
40284;SDS011;25997;50.214;19.354;2023-03-13T11:05:58;12.00;;;7.70;;
40284;SDS011;25997;50.214;19.354;2023-03-13T11:09:09;18.48;;;4.22;;
40284;SDS011;25997;50.214;19.354;2023-03-13T11:12:16;9.00;;;3.97;;
40284;SDS011;25997;50.214;19.354;2023-03-13T11:15:22;5.50;;;3.63;;
40284;SDS011;25997;50.214;19.354;2023-03-13T11:18:34;10.85;;;4.75;;
40284;SDS011;25997;50.214;19.354;2023-03-13T11:21:43;9.98;;;4.63;;
40284;SDS011;25997;50.214;19.354;2023-03-13T11:24:55;8.02;;;4.18;;
40284;SDS011;25997;50.214;19.354;2023-03-13T11:28:16;7.55;;;3.30;;
40284;SDS011;25997;50.214;19.354;2023-03-13T11:31:27;6.15;;;3.35;;
40284;SDS011;25997;50.214;19.354;2023-03-13T11:34:35;8.85;;;4.90;;
40284;SDS011;25997;50.214;19.354;2023-03-13T11:37:45;8.38;;;6.07;;
40284;SDS011;25997;50.214;19.354;2023-03-13T11:40:53;10.27;;;6.00;;
40284;SDS011;25997;50.214;19.354;2023-03-13T11:44:05;7.45;;;4.38;;
40284;SDS011;25997;50.214;19.354;2023-03-13T11:50:47;11.15;;;5.22;;
40284;SDS011;25997;50.214;19.354;2023-03-13T11:54:00;8.23;;;4.72;;
40284;SDS011;25997;50.214;19.354;2023-03-13T11:57:13;15.75;;;7.93;;
40284;SDS011;25997;50.214;19.354;2023-03-13T12:00:23;9.35;;;6.30;;
40284;SDS011;25997;50.214;19.354;2023-03-13T12:03:34;10.02;;;6.93;;
40284;SDS011;25997;50.214;19.354;2023-03-13T12:06:42;8.50;;;5.30;;
40284;SDS011;25997;50.214;19.354;2023-03-13T12:09:48;7.25;;;4.07;;
40284;SDS011;25997;50.214;19.354;2023-03-13T12:12:56;5.88;;;3.70;;
40284;SDS011;25997;50.214;19.354;2023-03-13T12:16:05;6.55;;;3.30;;
40284;SDS011;25997;50.214;19.354;2023-03-13T12:19:14;9.15;;;5.53;;
40284;SDS011;25997;50.214;19.354;2023-03-13T12:22:23;5.07;;;3.92;;
40284;SDS011;25997;50.214;19.354;2023-03-13T12:25:34;10.68;;;6.18;;
40284;SDS011;25997;50.214;19.354;2023-03-13T12:28:42;7.70;;;4.82;;
40284;SDS011;25997;50.214;19.354;2023-03-13T12:31:47;6.63;;;5.07;;
40284;SDS011;25997;50.214;19.354;2023-03-13T12:34:56;5.63;;;3.97;;
40284;SDS011;25997;50.214;19.354;2023-03-13T12:38:11;7.65;;;3.78;;
40284;SDS011;25997;50.214;19.354;2023-03-13T12:41:23;6.68;;;3.28;;
40284;SDS011;25997;50.214;19.354;2023-03-13T12:44:29;6.10;;;3.65;;
40284;SDS011;25997;50.214;19.354;2023-03-13T12:47:32;8.63;;;3.75;;
40284;SDS011;25997;50.214;19.354;2023-03-13T12:51:00;10.30;;;4.22;;
40284;SDS011;25997;50.214;19.354;2023-03-13T12:57:52;4.55;;;3.20;;
40284;SDS011;25997;50.214;19.354;2023-03-13T13:01:12;5.43;;;3.03;;
40284;SDS011;25997;50.214;19.354;2023-03-13T13:04:20;5.57;;;3.50;;
40284;SDS011;25997;50.214;19.354;2023-03-13T13:07:26;4.97;;;3.10;;
40284;SDS011;25997;50.214;19.354;2023-03-13T13:10:32;5.43;;;3.58;;
40284;SDS011;25997;50.214;19.354;2023-03-13T13:13:36;4.65;;;3.22;;
40284;SDS011;25997;50.214;19.354;2023-03-13T13:16:40;5.93;;;3.08;;
40284;SDS011;25997;50.214;19.354;2023-03-13T13:19:44;5.80;;;3.47;;
40284;SDS011;25997;50.214;19.354;2023-03-13T13:22:48;9.35;;;5.97;;
40284;SDS011;25997;50.214;19.354;2023-03-13T13:25:53;6.07;;;3.65;;
40284;SDS011;25997;50.214;19.354;2023-03-13T13:28:57;4.65;;;3.03;;
40284;SDS011;25997;50.214;19.354;2023-03-13T13:32:02;7.15;;;3.05;;
40284;SDS011;25997;50.214;19.354;2023-03-13T13:35:26;5.00;;;3.42;;
40284;SDS011;25997;50.214;19.354;2023-03-13T13:38:32;7.10;;;3.35;;
40284;SDS011;25997;50.214;19.354;2023-03-13T13:41:41;5.07;;;2.97;;
40284;SDS011;25997;50.214;19.354;2023-03-13T13:44:56;5.93;;;3.85;;
40284;SDS011;25997;50.214;19.354;2023-03-13T13:51:31;4.28;;;3.30;;
40284;SDS011;25997;50.214;19.354;2023-03-13T13:54:52;4.90;;;2.75;;
40284;SDS011;25997;50.214;19.354;2023-03-13T13:57:59;6.43;;;4.80;;
40284;SDS011;25997;50.214;19.354;2023-03-13T14:01:05;5.72;;;3.03;;
40284;SDS011;25997;50.214;19.354;2023-03-13T14:04:12;4.70;;;3.13;;
40284;SDS011;25997;50.214;19.354;2023-03-13T14:07:18;4.88;;;3.15;;
40284;SDS011;25997;50.214;19.354;2023-03-13T14:10:34;5.35;;;3.20;;
40284;SDS011;25997;50.214;19.354;2023-03-13T14:13:40;6.95;;;4.43;;
40284;SDS011;25997;50.214;19.354;2023-03-13T14:16:43;8.07;;;4.43;;
40284;SDS011;25997;50.214;19.354;2023-03-13T14:19:47;7.35;;;4.03;;
40284;SDS011;25997;50.214;19.354;2023-03-13T14:22:50;7.30;;;5.07;;
40284;SDS011;25997;50.214;19.354;2023-03-13T14:25:54;10.70;;;5.18;;
40284;SDS011;25997;50.214;19.354;2023-03-13T14:28:58;6.63;;;4.50;;
40284;SDS011;25997;50.214;19.354;2023-03-13T14:32:02;6.57;;;3.92;;
40284;SDS011;25997;50.214;19.354;2023-03-13T14:35:06;6.03;;;3.65;;
40284;SDS011;25997;50.214;19.354;2023-03-13T14:38:17;6.82;;;4.97;;
40284;SDS011;25997;50.214;19.354;2023-03-13T14:41:28;8.55;;;5.10;;
40284;SDS011;25997;50.214;19.354;2023-03-13T14:44:34;6.55;;;4.38;;
40284;SDS011;25997;50.214;19.354;2023-03-13T14:47:38;7.07;;;5.60;;
40284;SDS011;25997;50.214;19.354;2023-03-13T14:50:42;5.20;;;4.03;;
40284;SDS011;25997;50.214;19.354;2023-03-13T14:53:54;6.78;;;4.53;;
40284;SDS011;25997;50.214;19.354;2023-03-13T14:57:02;6.80;;;4.55;;
40284;SDS011;25997;50.214;19.354;2023-03-13T15:03:34;6.82;;;5.38;;
40284;SDS011;25997;50.214;19.354;2023-03-13T15:06:37;19.02;;;15.85;;
40284;SDS011;25997;50.214;19.354;2023-03-13T15:09:40;11.00;;;9.90;;
40284;SDS011;25997;50.214;19.354;2023-03-13T15:12:43;9.65;;;6.43;;
40284;SDS011;25997;50.214;19.354;2023-03-13T15:15:48;7.47;;;6.43;;
40284;SDS011;25997;50.214;19.354;2023-03-13T15:18:51;8.65;;;6.20;;
40284;SDS011;25997;50.214;19.354;2023-03-13T15:21:54;7.70;;;6.07;;
40284;SDS011;25997;50.214;19.354;2023-03-13T15:24:57;11.13;;;7.70;;
40284;SDS011;25997;50.214;19.354;2023-03-13T15:28:00;9.23;;;5.72;;
40284;SDS011;25997;50.214;19.354;2023-03-13T15:31:05;7.95;;;6.10;;
40284;SDS011;25997;50.214;19.354;2023-03-13T15:34:09;7.47;;;5.47;;
40284;SDS011;25997;50.214;19.354;2023-03-13T15:37:13;11.93;;;6.07;;
40284;SDS011;25997;50.214;19.354;2023-03-13T15:40:16;6.65;;;5.22;;
40284;SDS011;25997;50.214;19.354;2023-03-13T15:43:20;9.63;;;7.57;;
40284;SDS011;25997;50.214;19.354;2023-03-13T15:46:25;8.27;;;6.22;;
40284;SDS011;25997;50.214;19.354;2023-03-13T15:49:28;6.38;;;4.47;;
40284;SDS011;25997;50.214;19.354;2023-03-13T15:52:31;8.65;;;4.95;;
40284;SDS011;25997;50.214;19.354;2023-03-13T15:55:36;6.88;;;5.32;;
40284;SDS011;25997;50.214;19.354;2023-03-13T15:58:38;8.25;;;6.97;;
40284;SDS011;25997;50.214;19.354;2023-03-13T16:01:42;6.90;;;4.75;;
40284;SDS011;25997;50.214;19.354;2023-03-13T16:04:45;9.75;;;6.85;;
40284;SDS011;25997;50.214;19.354;2023-03-13T16:07:48;17.42;;;11.05;;
40284;SDS011;25997;50.214;19.354;2023-03-13T16:10:51;29.23;;;16.85;;
40284;SDS011;25997;50.214;19.354;2023-03-13T16:13:53;35.22;;;29.77;;
40284;SDS011;25997;50.214;19.354;2023-03-13T16:16:58;16.10;;;11.82;;
40284;SDS011;25997;50.214;19.354;2023-03-13T16:20:01;10.73;;;9.52;;
40284;SDS011;25997;50.214;19.354;2023-03-13T16:23:10;10.93;;;9.23;;
40284;SDS011;25997;50.214;19.354;2023-03-13T16:26:14;27.85;;;23.98;;
40284;SDS011;25997;50.214;19.354;2023-03-13T16:29:18;25.95;;;23.02;;
40284;SDS011;25997;50.214;19.354;2023-03-13T16:32:22;31.58;;;28.40;;
40284;SDS011;25997;50.214;19.354;2023-03-13T16:35:26;10.15;;;7.68;;
40284;SDS011;25997;50.214;19.354;2023-03-13T16:38:29;30.75;;;25.02;;
40284;SDS011;25997;50.214;19.354;2023-03-13T16:41:31;15.68;;;13.88;;
40284;SDS011;25997;50.214;19.354;2023-03-13T16:44:34;21.77;;;12.98;;
40284;SDS011;25997;50.214;19.354;2023-03-13T16:47:38;16.75;;;12.10;;
40284;SDS011;25997;50.214;19.354;2023-03-13T16:50:40;28.83;;;23.60;;
40284;SDS011;25997;50.214;19.354;2023-03-13T16:53:46;15.98;;;11.68;;
40284;SDS011;25997;50.214;19.354;2023-03-13T16:56:49;24.35;;;17.83;;
40284;SDS011;25997;50.214;19.354;2023-03-13T16:59:52;13.40;;;10.65;;
40284;SDS011;25997;50.214;19.354;2023-03-13T17:02:56;10.85;;;7.25;;
40284;SDS011;25997;50.214;19.354;2023-03-13T17:05:59;10.38;;;7.53;;
40284;SDS011;25997;50.214;19.354;2023-03-13T17:09:01;14.98;;;11.18;;
40284;SDS011;25997;50.214;19.354;2023-03-13T17:12:04;45.15;;;32.70;;
40284;SDS011;25997;50.214;19.354;2023-03-13T17:15:07;16.00;;;13.32;;
40284;SDS011;25997;50.214;19.354;2023-03-13T17:18:11;75.28;;;44.53;;
40284;SDS011;25997;50.214;19.354;2023-03-13T17:21:15;25.92;;;19.67;;
40284;SDS011;25997;50.214;19.354;2023-03-13T17:24:19;21.63;;;13.93;;
40284;SDS011;25997;50.214;19.354;2023-03-13T17:27:22;15.75;;;13.73;;
40284;SDS011;25997;50.214;19.354;2023-03-13T17:30:25;14.57;;;13.05;;
40284;SDS011;25997;50.214;19.354;2023-03-13T17:33:31;15.43;;;12.85;;
40284;SDS011;25997;50.214;19.354;2023-03-13T17:36:34;13.75;;;9.88;;
40284;SDS011;25997;50.214;19.354;2023-03-13T17:39:37;26.20;;;20.75;;
40284;SDS011;25997;50.214;19.354;2023-03-13T17:42:39;21.42;;;19.20;;
40284;SDS011;25997;50.214;19.354;2023-03-13T17:45:42;14.25;;;10.43;;
40284;SDS011;25997;50.214;19.354;2023-03-13T17:48:46;11.80;;;10.57;;
40284;SDS011;25997;50.214;19.354;2023-03-13T17:51:51;12.68;;;9.88;;
40284;SDS011;25997;50.214;19.354;2023-03-13T17:54:53;20.33;;;18.33;;
40284;SDS011;25997;50.214;19.354;2023-03-13T17:57:56;12.55;;;8.82;;
40284;SDS011;25997;50.214;19.354;2023-03-13T18:00:58;27.90;;;24.83;;
40284;SDS011;25997;50.214;19.354;2023-03-13T18:04:02;19.38;;;16.92;;
40284;SDS011;25997;50.214;19.354;2023-03-13T18:07:09;29.75;;;24.08;;
40284;SDS011;25997;50.214;19.354;2023-03-13T18:10:17;25.00;;;20.88;;
40284;SDS011;25997;50.214;19.354;2023-03-13T18:13:21;36.75;;;28.30;;
40284;SDS011;25997;50.214;19.354;2023-03-13T18:16:25;31.98;;;24.20;;
40284;SDS011;25997;50.214;19.354;2023-03-13T18:19:31;19.27;;;14.85;;
40284;SDS011;25997;50.214;19.354;2023-03-13T18:22:34;19.75;;;16.67;;
40284;SDS011;25997;50.214;19.354;2023-03-13T18:25:36;27.08;;;21.35;;
40284;SDS011;25997;50.214;19.354;2023-03-13T18:28:38;33.97;;;24.85;;
40284;SDS011;25997;50.214;19.354;2023-03-13T18:31:41;37.38;;;30.60;;
40284;SDS011;25997;50.214;19.354;2023-03-13T18:34:45;63.45;;;43.33;;